Hereheretue, French Polynesia
Current Conditions -  °F | °C
As of 4:00 AM on Thursday 30 Oct 2014 (Local Time) from NTAA Reporting Station
Few Clouds Few Clouds  
Wind Chill: 75°   Ceiling: Unl
Heat Index: 75°   Visibility: 6mi
Dew Point: 72°   Wind: 0mph
Humidity: 89%   Direction: NA
Pressure: 29.88"   Gusts: NA
Location:  19.9°S, 144.97°W
Report Text: NTAA 301300Z 00000KT 9999 FEW020 24/22 Q1012 NOSIG
Loading
Personal Weather Stations






























Interactive Weather Map
Tropical Storm Tracking
New forecast layout! Learn more

10-Day Weather Forecast

Advertisements
Track Severe Weather on mobile